sensor_id;sensor_type;location;lat;lon;timestamp;pressure;altitude;pressure_sealevel;temperature;humidity
46598;BME280;32318;48.858;8.252;2023-02-28T00:01:26;101079.09;;;-0.73;61.54
46598;BME280;32318;48.858;8.252;2023-02-28T00:09:26;101076.66;;;-0.78;61.54
46598;BME280;32318;48.858;8.252;2023-02-28T00:17:26;101078.91;;;-0.89;62.37
46598;BME280;32318;48.858;8.252;2023-02-28T00:25:26;101075.66;;;-0.95;62.15
46598;BME280;32318;48.858;8.252;2023-02-28T00:33:27;101078.38;;;-0.96;62.99
46598;BME280;32318;48.858;8.252;2023-02-28T00:41:27;101076.28;;;-1.08;62.97
46598;BME280;32318;48.858;8.252;2023-02-28T00:49:28;101077.47;;;-1.16;63.51
46598;BME280;32318;48.858;8.252;2023-02-28T00:57:28;101076.75;;;-1.19;63.38
46598;BME280;32318;48.858;8.252;2023-02-28T01:05:28;101079.44;;;-1.21;63.23
46598;BME280;32318;48.858;8.252;2023-02-28T01:13:28;101073.75;;;-1.31;63.90
46598;BME280;32318;48.858;8.252;2023-02-28T01:21:29;101075.38;;;-1.28;64.15
46598;BME280;32318;48.858;8.252;2023-02-28T01:29:30;101075.66;;;-1.34;63.82
46598;BME280;32318;48.858;8.252;2023-02-28T01:37:30;101078.28;;;-1.34;64.09
46598;BME280;32318;48.858;8.252;2023-02-28T01:45:31;101069.63;;;-1.36;64.06
46598;BME280;32318;48.858;8.252;2023-02-28T01:53:39;101071.25;;;-1.34;64.62
46598;BME280;32318;48.858;8.252;2023-02-28T02:01:42;101068.19;;;-1.44;64.52
46598;BME280;32318;48.858;8.252;2023-02-28T02:09:42;101060.47;;;-1.47;65.00
46598;BME280;32318;48.858;8.252;2023-02-28T02:17:46;101051.88;;;-1.50;65.38
46598;BME280;32318;48.858;8.252;2023-02-28T02:25:56;101058.00;;;-1.50;65.41
46598;BME280;32318;48.858;8.252;2023-02-28T02:42:28;101053.34;;;-1.64;66.36
46598;BME280;32318;48.858;8.252;2023-02-28T02:50:35;101054.38;;;-1.68;66.53
46598;BME280;32318;48.858;8.252;2023-02-28T02:58:40;101057.91;;;-1.69;67.16
46598;BME280;32318;48.858;8.252;2023-02-28T03:06:42;101053.28;;;-1.83;67.20
46598;BME280;32318;48.858;8.252;2023-02-28T03:23:35;101050.00;;;-1.88;67.92
46598;BME280;32318;48.858;8.252;2023-02-28T03:31:43;101045.81;;;-1.92;68.35
46598;BME280;32318;48.858;8.252;2023-02-28T03:39:46;101051.16;;;-1.95;68.12
46598;BME280;32318;48.858;8.252;2023-02-28T03:47:54;101048.34;;;-1.91;68.26
46598;BME280;32318;48.858;8.252;2023-02-28T03:56:06;101046.66;;;-1.92;68.85
46598;BME280;32318;48.858;8.252;2023-02-28T04:04:09;101041.03;;;-1.82;68.79
46598;BME280;32318;48.858;8.252;2023-02-28T04:12:09;101044.06;;;-1.71;68.90
46598;BME280;32318;48.858;8.252;2023-02-28T04:20:10;101041.38;;;-1.69;69.37
46598;BME280;32318;48.858;8.252;2023-02-28T04:28:11;101046.72;;;-1.52;68.23
46598;BME280;32318;48.858;8.252;2023-02-28T04:36:11;101048.94;;;-1.43;68.33
46598;BME280;32318;48.858;8.252;2023-02-28T04:44:13;101048.50;;;-1.52;69.07
46598;BME280;32318;48.858;8.252;2023-02-28T04:52:14;101035.84;;;-1.63;69.52
46598;BME280;32318;48.858;8.252;2023-02-28T05:00:14;101046.22;;;-1.60;69.14
46598;BME280;32318;48.858;8.252;2023-02-28T05:08:16;101053.78;;;-1.54;69.08
46598;BME280;32318;48.858;8.252;2023-02-28T05:16:17;101059.16;;;-1.36;68.18
46598;BME280;32318;48.858;8.252;2023-02-28T05:24:18;101062.97;;;-1.44;68.50
46598;BME280;32318;48.858;8.252;2023-02-28T05:32:23;101058.00;;;-1.50;68.85
46598;BME280;32318;48.858;8.252;2023-02-28T05:40:23;101060.94;;;-1.37;68.15
46598;BME280;32318;48.858;8.252;2023-02-28T05:48:24;101048.63;;;-1.35;67.84
46598;BME280;32318;48.858;8.252;2023-02-28T05:56:26;101056.81;;;-1.43;69.11
46598;BME280;32318;48.858;8.252;2023-02-28T06:04:26;101057.72;;;-1.44;69.39
46598;BME280;32318;48.858;8.252;2023-02-28T06:12:27;101063.09;;;-1.47;69.94
46598;BME280;32318;48.858;8.252;2023-02-28T06:20:27;101074.31;;;-1.43;69.93
46598;BME280;32318;48.858;8.252;2023-02-28T06:28:31;101081.50;;;-1.28;69.57
46598;BME280;32318;48.858;8.252;2023-02-28T06:36:31;101086.66;;;-1.26;69.95
46598;BME280;32318;48.858;8.252;2023-02-28T06:44:32;101096.84;;;-1.20;69.50
46598;BME280;32318;48.858;8.252;2023-02-28T06:52:35;101094.75;;;-1.12;69.48
46598;BME280;32318;48.858;8.252;2023-02-28T07:00:38;101111.09;;;-0.86;68.55
46598;BME280;32318;48.858;8.252;2023-02-28T07:08:38;101106.56;;;-0.82;68.38
46598;BME280;32318;48.858;8.252;2023-02-28T07:16:40;101121.97;;;-0.74;68.11
46598;BME280;32318;48.858;8.252;2023-02-28T07:24:40;101114.09;;;-0.74;68.12
46598;BME280;32318;48.858;8.252;2023-02-28T07:32:41;101109.84;;;-0.58;67.64
46598;BME280;32318;48.858;8.252;2023-02-28T07:40:41;101118.91;;;-0.46;67.61
46598;BME280;32318;48.858;8.252;2023-02-28T07:48:42;101124.94;;;-0.25;65.42
46598;BME280;32318;48.858;8.252;2023-02-28T07:56:42;101116.47;;;-0.12;65.11
46598;BME280;32318;48.858;8.252;2023-02-28T08:04:43;101117.31;;;-0.12;65.42
46598;BME280;32318;48.858;8.252;2023-02-28T08:12:43;101122.56;;;0.07;64.40
46598;BME280;32318;48.858;8.252;2023-02-28T08:20:43;101132.63;;;0.17;63.75
46598;BME280;32318;48.858;8.252;2023-02-28T08:28:44;101140.84;;;0.09;63.62
46598;BME280;32318;48.858;8.252;2023-02-28T08:36:44;101148.66;;;0.10;63.59
46598;BME280;32318;48.858;8.252;2023-02-28T08:44:45;101136.00;;;0.19;63.46
46598;BME280;32318;48.858;8.252;2023-02-28T08:52:46;101136.56;;;0.25;63.82
46598;BME280;32318;48.858;8.252;2023-02-28T09:00:46;101141.34;;;0.35;62.96
46598;BME280;32318;48.858;8.252;2023-02-28T09:08:47;101150.84;;;0.37;62.86
46598;BME280;32318;48.858;8.252;2023-02-28T09:16:48;101152.16;;;0.28;63.32
46598;BME280;32318;48.858;8.252;2023-02-28T09:24:48;101142.84;;;0.40;62.64
46598;BME280;32318;48.858;8.252;2023-02-28T09:32:49;101137.34;;;0.27;63.30
46598;BME280;32318;48.858;8.252;2023-02-28T09:40:54;101149.94;;;0.38;63.04
46598;BME280;32318;48.858;8.252;2023-02-28T09:48:56;101145.47;;;0.58;62.28
46598;BME280;32318;48.858;8.252;2023-02-28T10:05:17;101160.13;;;0.80;61.33
46598;BME280;32318;48.858;8.252;2023-02-28T10:13:24;101146.91;;;0.99;60.41
46598;BME280;32318;48.858;8.252;2023-02-28T10:21:47;101151.84;;;1.05;60.53
46598;BME280;32318;48.858;8.252;2023-02-28T10:29:52;101160.53;;;1.23;59.95
46598;BME280;32318;48.858;8.252;2023-02-28T10:37:57;101166.88;;;1.36;59.38
46598;BME280;32318;48.858;8.252;2023-02-28T10:54:15;101160.47;;;1.74;55.80
46598;BME280;32318;48.858;8.252;2023-02-28T11:02:35;101159.69;;;1.72;55.65
46598;BME280;32318;48.858;8.252;2023-02-28T11:10:36;101167.00;;;1.83;55.98
46598;BME280;32318;48.858;8.252;2023-02-28T11:26:47;101152.81;;;2.01;55.26
46598;BME280;32318;48.858;8.252;2023-02-28T11:51:35;101142.78;;;2.55;53.97
46598;BME280;32318;48.858;8.252;2023-02-28T12:08:23;101128.34;;;3.05;52.40
46598;BME280;32318;48.858;8.252;2023-02-28T12:24:41;101122.97;;;3.21;52.26
46598;BME280;32318;48.858;8.252;2023-02-28T12:33:04;101113.19;;;3.38;52.47
46598;BME280;32318;48.858;8.252;2023-02-28T12:41:48;101094.78;;;3.78;51.90
46598;BME280;32318;48.858;8.252;2023-02-28T12:58:05;101092.59;;;4.12;50.50
46598;BME280;32318;48.858;8.252;2023-02-28T13:06:22;101080.41;;;3.97;50.54
46598;BME280;32318;48.858;8.252;2023-02-28T13:14:35;101077.47;;;3.87;51.00
46598;BME280;32318;48.858;8.252;2023-02-28T13:22:42;101068.50;;;3.76;50.57
46598;BME280;32318;48.858;8.252;2023-02-28T14:37:26;101060.94;;;4.90;48.38
46598;BME280;32318;48.858;8.252;2023-02-28T14:45:31;101053.63;;;5.06;48.45
46598;BME280;32318;48.858;8.252;2023-02-28T14:53:36;101050.03;;;4.94;48.80
46598;BME280;32318;48.858;8.252;2023-02-28T15:01:37;101050.34;;;5.02;48.30
46598;BME280;32318;48.858;8.252;2023-02-28T15:09:37;101042.53;;;4.88;49.03
46598;BME280;32318;48.858;8.252;2023-02-28T15:17:37;101052.06;;;4.91;48.93
46598;BME280;32318;48.858;8.252;2023-02-28T15:25:39;101044.44;;;4.99;49.62
46598;BME280;32318;48.858;8.252;2023-02-28T15:33:52;101059.03;;;5.05;48.78
46598;BME280;32318;48.858;8.252;2023-02-28T15:42:19;101054.38;;;4.95;49.23
46598;BME280;32318;48.858;8.252;2023-02-28T15:50:19;101050.47;;;4.88;49.16
46598;BME280;32318;48.858;8.252;2023-02-28T15:58:21;101050.47;;;4.88;49.41
46598;BME280;32318;48.858;8.252;2023-02-28T16:06:32;101048.91;;;4.85;48.94
46598;BME280;32318;48.858;8.252;2023-02-28T16:14:33;101058.19;;;4.78;49.65
46598;BME280;32318;48.858;8.252;2023-02-28T16:22:35;101058.41;;;4.75;49.57
46598;BME280;32318;48.858;8.252;2023-02-28T16:30:35;101072.38;;;4.64;49.58
46598;BME280;32318;48.858;8.252;2023-02-28T16:38:36;101075.66;;;4.55;50.07
46598;BME280;32318;48.858;8.252;2023-02-28T16:46:36;101079.31;;;4.39;50.74
46598;BME280;32318;48.858;8.252;2023-02-28T16:54:37;101094.78;;;4.33;50.76
46598;BME280;32318;48.858;8.252;2023-02-28T17:02:38;101096.59;;;4.05;51.45
46598;BME280;32318;48.858;8.252;2023-02-28T17:10:38;101101.91;;;3.90;51.83
46598;BME280;32318;48.858;8.252;2023-02-28T17:18:38;101108.41;;;3.72;52.45
46598;BME280;32318;48.858;8.252;2023-02-28T17:26:40;101120.66;;;3.58;52.65
46598;BME280;32318;48.858;8.252;2023-02-28T17:34:40;101135.69;;;3.43;53.41
46598;BME280;32318;48.858;8.252;2023-02-28T17:42:41;101143.13;;;3.22;53.31
46598;BME280;32318;48.858;8.252;2023-02-28T17:50:41;101162.00;;;3.16;53.13
46598;BME280;32318;48.858;8.252;2023-02-28T17:58:42;101159.34;;;3.02;54.06
46598;BME280;32318;48.858;8.252;2023-02-28T18:06:45;101152.75;;;2.94;53.67
46598;BME280;32318;48.858;8.252;2023-02-28T18:14:49;101160.81;;;2.77;54.51
46598;BME280;32318;48.858;8.252;2023-02-28T18:22:50;101156.63;;;2.58;55.19
46598;BME280;32318;48.858;8.252;2023-02-28T18:30:50;101159.78;;;2.49;55.00
46598;BME280;32318;48.858;8.252;2023-02-28T18:38:50;101158.06;;;2.33;56.08
46598;BME280;32318;48.858;8.252;2023-02-28T18:46:51;101155.94;;;2.24;56.22
46598;BME280;32318;48.858;8.252;2023-02-28T18:54:54;101162.66;;;2.14;56.54
46598;BME280;32318;48.858;8.252;2023-02-28T19:02:54;101165.81;;;2.04;57.21
46598;BME280;32318;48.858;8.252;2023-02-28T19:10:54;101174.22;;;1.95;57.62
46598;BME280;32318;48.858;8.252;2023-02-28T19:18:54;101167.25;;;1.94;57.65
46598;BME280;32318;48.858;8.252;2023-02-28T19:26:55;101172.88;;;1.88;57.66
46598;BME280;32318;48.858;8.252;2023-02-28T19:34:55;101168.09;;;1.79;58.22
46598;BME280;32318;48.858;8.252;2023-02-28T19:42:55;101168.09;;;1.79;58.28
46598;BME280;32318;48.858;8.252;2023-02-28T19:51:03;101177.59;;;1.65;58.70
46598;BME280;32318;48.858;8.252;2023-02-28T19:59:04;101173.84;;;1.53;59.00
46598;BME280;32318;48.858;8.252;2023-02-28T20:07:04;101167.47;;;1.41;59.36
46598;BME280;32318;48.858;8.252;2023-02-28T20:15:05;101174.47;;;1.25;60.03
46598;BME280;32318;48.858;8.252;2023-02-28T20:23:05;101161.00;;;1.14;60.44
46598;BME280;32318;48.858;8.252;2023-02-28T20:31:14;101160.75;;;1.02;61.15
46598;BME280;32318;48.858;8.252;2023-02-28T20:39:15;101159.97;;;1.00;60.61
46598;BME280;32318;48.858;8.252;2023-02-28T20:47:16;101158.59;;;0.93;61.23
46598;BME280;32318;48.858;8.252;2023-02-28T20:55:16;101161.75;;;1.00;61.35
46598;BME280;32318;48.858;8.252;2023-02-28T21:03:16;101156.88;;;0.92;61.44
46598;BME280;32318;48.858;8.252;2023-02-28T21:11:22;101160.69;;;0.86;61.32
46598;BME280;32318;48.858;8.252;2023-02-28T21:19:23;101164.31;;;0.84;61.58
46598;BME280;32318;48.858;8.252;2023-02-28T21:27:23;101160.78;;;0.67;61.96
46598;BME280;32318;48.858;8.252;2023-02-28T21:35:23;101164.19;;;0.69;62.19
46598;BME280;32318;48.858;8.252;2023-02-28T21:43:24;101143.84;;;0.55;62.50
46598;BME280;32318;48.858;8.252;2023-02-28T21:51:31;101142.28;;;0.51;62.45
46598;BME280;32318;48.858;8.252;2023-02-28T21:59:44;101141.69;;;0.46;62.89
46598;BME280;32318;48.858;8.252;2023-02-28T22:07:46;101149.31;;;0.33;63.00
46598;BME280;32318;48.858;8.252;2023-02-28T22:15:47;101145.22;;;0.27;63.55
46598;BME280;32318;48.858;8.252;2023-02-28T22:23:48;101145.13;;;0.29;63.26
46598;BME280;32318;48.858;8.252;2023-02-28T22:31:48;101138.25;;;0.26;63.30
46598;BME280;32318;48.858;8.252;2023-02-28T22:39:49;101135.72;;;0.25;63.25
46598;BME280;32318;48.858;8.252;2023-02-28T22:47:49;101137.09;;;0.14;63.63
46598;BME280;32318;48.858;8.252;2023-02-28T22:55:54;101131.94;;;-0.06;63.98
46598;BME280;32318;48.858;8.252;2023-02-28T23:03:55;101127.50;;;-0.23;64.80
46598;BME280;32318;48.858;8.252;2023-02-28T23:11:55;101132.78;;;-0.25;64.58
46598;BME280;32318;48.858;8.252;2023-02-28T23:19:55;101126.50;;;-0.21;64.89
46598;BME280;32318;48.858;8.252;2023-02-28T23:27:56;101131.75;;;-0.21;65.13
46598;BME280;32318;48.858;8.252;2023-02-28T23:35:56;101128.84;;;-0.34;64.88
46598;BME280;32318;48.858;8.252;2023-02-28T23:43:56;101132.09;;;-0.28;64.97
46598;BME280;32318;48.858;8.252;2023-02-28T23:51:57;101131.34;;;-0.30;65.03
46598;BME280;32318;48.858;8.252;2023-02-28T23:59:57;101123.69;;;-0.35;64.83
